Archival Weather

Pocono Mountains Rgnl

Mount Pocono, Pennsylvania (KMPO)

Report from: Tuesday, May 21, 2024 9:53 AM EDT
Current time: Monday, July 22, 2024 6:10 AM EDT

Current weather – Weather history – Daily summaries
Weather forecast

Temperature22.8°C (73.0°F)
Dew point15.0°C (59.0°F)
Winds 7 kts (3.6 m/s, 8.1 mph) West (260°)
Visibility10 mi. (16.1 km)
Clouds Sky clear
Altimeter30.04 in.Hg (1017 mB)
Relative humidity61 %
Density altitude1,037 ft. (316 m)
Sea-level pressure101.6 kPa (1016 mB, 30.01 in.Hg)
Remarks Fully automated report
Automated weather observing station with precipitation discriminator
Flight conditions Visual Meteorological Conditions
Raw dataKMPO 211353Z AUTO 26007KT 10SM CLR 23/15 A3004 RMK AO2 SLP164 T02280150
An error has occurred. This application may no longer respond until reloaded. Reload 🗙